Bridgeport, Connecticut
Current Conditions -  °F | °C
As of 3:52 PM on Saturday 25 Oct 2014 (Local Time) from KBDR Reporting Station
Clear Clear  
Wind Chill: 65°   Ceiling: Unl
Heat Index: 65°   Visibility: 10mi
Dew Point: 49°   Wind: 14mph
Humidity: 56%   Direction: 220°SW
Pressure: 29.66"   Gusts: NA
Location:  41.18°N, 73.19°W
Report Text: KBDR 251952Z 22012KT 10SM CLR 18/09 A2966 RMK AO2 SLP043 T01830094
Loading
Personal Weather Stations






























Interactive Weather Map
Tropical Storm Tracking
New forecast layout! Learn more

10-Day Weather Forecast

Advertisements
Track Severe Weather on mobile